Terminal Aerodrome Forecast
Issued by NWS Shreveport, LA

Current Version | Previous Version | Text Only | Print | Product List | Glossary On
Versions: 1 2 3 4 5 6 7 8 9 10 11 12
000
FTUS44 KSHV 181729
TAFTXK
TAF
KTXK 181729Z 1818/1918 18005KT P6SM SKC
     FM190000 15003KT P6SM SKC
      TEMPO 1910/1914 3SM BR SCT250
     FM191400 13005KT P6SM SCT015 SCT250
      TEMPO 1914/1916 BKN015=

USA.gov is the U.S. government's official web portal to all federal, state and local government web resources and services.